sensor_id;sensor_type;location;lat;lon;timestamp;temperature;humidity
26745;DHT22;14342;50.960;13.880;2022-12-29T00:00:36;8.60;99.90
26745;DHT22;14342;50.960;13.880;2022-12-29T00:01:36;8.60;99.90
26745;DHT22;14342;50.960;13.880;2022-12-29T00:02:38;8.60;99.90
26745;DHT22;14342;50.960;13.880;2022-12-29T00:03:39;8.70;99.90
26745;DHT22;14342;50.960;13.880;2022-12-29T00:04:42;8.80;99.90
26745;DHT22;14342;50.960;13.880;2022-12-29T00:05:42;8.80;99.90
26745;DHT22;14342;50.960;13.880;2022-12-29T00:06:44;8.90;99.90
26745;DHT22;14342;50.960;13.880;2022-12-29T00:07:44;8.90;99.90
26745;DHT22;14342;50.960;13.880;2022-12-29T00:08:46;9.00;99.90
26745;DHT22;14342;50.960;13.880;2022-12-29T00:09:47;9.00;99.90
26745;DHT22;14342;50.960;13.880;2022-12-29T00:10:48;8.90;99.90
26745;DHT22;14342;50.960;13.880;2022-12-29T00:11:49;9.00;99.90
26745;DHT22;14342;50.960;13.880;2022-12-29T00:12:51;8.90;99.90
26745;DHT22;14342;50.960;13.880;2022-12-29T00:14:10;9.10;99.90
26745;DHT22;14342;50.960;13.880;2022-12-29T00:15:29;9.10;99.90
26745;DHT22;14342;50.960;13.880;2022-12-29T00:16:40;8.90;99.90
26745;DHT22;14342;50.960;13.880;2022-12-29T00:17:42;8.90;99.90
26745;DHT22;14342;50.960;13.880;2022-12-29T00:18:42;8.90;99.90
26745;DHT22;14342;50.960;13.880;2022-12-29T00:19:45;8.90;99.90
26745;DHT22;14342;50.960;13.880;2022-12-29T00:21:04;8.90;99.90
26745;DHT22;14342;50.960;13.880;2022-12-29T00:22:23;8.90;99.90
26745;DHT22;14342;50.960;13.880;2022-12-29T00:23:43;8.90;99.90
26745;DHT22;14342;50.960;13.880;2022-12-29T00:25:02;9.00;99.90
26745;DHT22;14342;50.960;13.880;2022-12-29T00:26:22;9.00;99.90
26745;DHT22;14342;50.960;13.880;2022-12-29T00:27:41;9.10;99.90
26745;DHT22;14342;50.960;13.880;2022-12-29T00:29:00;9.00;99.90
26745;DHT22;14342;50.960;13.880;2022-12-29T00:30:24;9.00;99.90
26745;DHT22;14342;50.960;13.880;2022-12-29T00:31:44;9.00;99.90
26745;DHT22;14342;50.960;13.880;2022-12-29T00:33:08;9.10;99.90
26745;DHT22;14342;50.960;13.880;2022-12-29T00:34:27;9.10;99.90
26745;DHT22;14342;50.960;13.880;2022-12-29T00:35:52;9.00;99.90
26745;DHT22;14342;50.960;13.880;2022-12-29T00:36:54;9.00;99.90
26745;DHT22;14342;50.960;13.880;2022-12-29T00:37:57;9.00;99.90
26745;DHT22;14342;50.960;13.880;2022-12-29T00:39:16;9.00;99.90
26745;DHT22;14342;50.960;13.880;2022-12-29T00:40:36;9.10;99.90
26745;DHT22;14342;50.960;13.880;2022-12-29T00:41:55;9.10;99.90
26745;DHT22;14342;50.960;13.880;2022-12-29T00:43:23;9.00;99.90
26745;DHT22;14342;50.960;13.880;2022-12-29T00:44:42;9.00;99.90
26745;DHT22;14342;50.960;13.880;2022-12-29T00:45:43;9.00;99.90
26745;DHT22;14342;50.960;13.880;2022-12-29T00:46:44;8.90;99.90
26745;DHT22;14342;50.960;13.880;2022-12-29T00:47:46;8.90;99.90
26745;DHT22;14342;50.960;13.880;2022-12-29T00:48:46;8.90;99.90
26745;DHT22;14342;50.960;13.880;2022-12-29T00:50:05;8.80;99.90
26745;DHT22;14342;50.960;13.880;2022-12-29T00:51:08;8.80;99.90
26745;DHT22;14342;50.960;13.880;2022-12-29T00:52:09;8.70;99.90
26745;DHT22;14342;50.960;13.880;2022-12-29T00:53:11;8.60;99.90
26745;DHT22;14342;50.960;13.880;2022-12-29T00:54:12;8.60;99.90
26745;DHT22;14342;50.960;13.880;2022-12-29T00:55:14;8.60;99.90
26745;DHT22;14342;50.960;13.880;2022-12-29T00:56:15;8.60;99.90
26745;DHT22;14342;50.960;13.880;2022-12-29T00:57:16;8.60;99.90
26745;DHT22;14342;50.960;13.880;2022-12-29T00:58:17;8.20;99.90
26745;DHT22;14342;50.960;13.880;2022-12-29T00:59:18;8.60;99.90
26745;DHT22;14342;50.960;13.880;2022-12-29T01:00:20;8.50;99.90
26745;DHT22;14342;50.960;13.880;2022-12-29T01:01:20;8.50;99.90
26745;DHT22;14342;50.960;13.880;2022-12-29T01:02:22;8.50;99.90
26745;DHT22;14342;50.960;13.880;2022-12-29T01:03:23;8.60;99.90
26745;DHT22;14342;50.960;13.880;2022-12-29T01:04:24;8.60;99.90
26745;DHT22;14342;50.960;13.880;2022-12-29T01:05:26;8.50;99.90
26745;DHT22;14342;50.960;13.880;2022-12-29T01:06:28;8.50;99.90
26745;DHT22;14342;50.960;13.880;2022-12-29T01:07:30;8.50;99.90
26745;DHT22;14342;50.960;13.880;2022-12-29T01:08:30;8.40;99.90
26745;DHT22;14342;50.960;13.880;2022-12-29T01:09:32;8.40;99.90
26745;DHT22;14342;50.960;13.880;2022-12-29T01:10:58;8.30;99.90
26745;DHT22;14342;50.960;13.880;2022-12-29T01:11:59;8.30;99.90
26745;DHT22;14342;50.960;13.880;2022-12-29T01:13:00;8.20;99.90
26745;DHT22;14342;50.960;13.880;2022-12-29T01:14:01;8.20;99.90
26745;DHT22;14342;50.960;13.880;2022-12-29T01:15:03;8.10;99.90
26745;DHT22;14342;50.960;13.880;2022-12-29T01:16:03;8.00;99.90
26745;DHT22;14342;50.960;13.880;2022-12-29T01:17:05;8.00;99.90
26745;DHT22;14342;50.960;13.880;2022-12-29T01:18:06;7.90;99.90
26745;DHT22;14342;50.960;13.880;2022-12-29T01:19:08;8.00;99.90
26745;DHT22;14342;50.960;13.880;2022-12-29T01:20:09;8.00;99.90
26745;DHT22;14342;50.960;13.880;2022-12-29T01:21:11;8.00;99.90
26745;DHT22;14342;50.960;13.880;2022-12-29T01:22:14;8.00;99.90
26745;DHT22;14342;50.960;13.880;2022-12-29T01:23:16;7.90;99.90
26745;DHT22;14342;50.960;13.880;2022-12-29T01:24:17;7.90;99.90
26745;DHT22;14342;50.960;13.880;2022-12-29T01:25:19;7.90;99.90
26745;DHT22;14342;50.960;13.880;2022-12-29T01:26:19;8.00;99.90
26745;DHT22;14342;50.960;13.880;2022-12-29T01:27:21;8.00;99.90
26745;DHT22;14342;50.960;13.880;2022-12-29T01:28:23;8.10;99.90
26745;DHT22;14342;50.960;13.880;2022-12-29T01:29:24;8.00;99.90
26745;DHT22;14342;50.960;13.880;2022-12-29T01:30:25;8.00;99.90
26745;DHT22;14342;50.960;13.880;2022-12-29T01:31:26;7.90;99.90
26745;DHT22;14342;50.960;13.880;2022-12-29T01:32:27;7.80;99.90
26745;DHT22;14342;50.960;13.880;2022-12-29T01:33:28;7.90;99.90
26745;DHT22;14342;50.960;13.880;2022-12-29T01:34:30;7.80;99.90
26745;DHT22;14342;50.960;13.880;2022-12-29T01:35:30;8.00;99.90
26745;DHT22;14342;50.960;13.880;2022-12-29T01:36:32;7.80;99.90
26745;DHT22;14342;50.960;13.880;2022-12-29T01:37:34;7.70;99.90
26745;DHT22;14342;50.960;13.880;2022-12-29T01:38:36;7.70;99.90
26745;DHT22;14342;50.960;13.880;2022-12-29T01:39:37;7.70;99.90
26745;DHT22;14342;50.960;13.880;2022-12-29T01:40:44;7.70;99.90
26745;DHT22;14342;50.960;13.880;2022-12-29T01:41:45;7.70;99.90
26745;DHT22;14342;50.960;13.880;2022-12-29T01:42:47;7.30;99.90
26745;DHT22;14342;50.960;13.880;2022-12-29T01:43:48;7.70;99.90
26745;DHT22;14342;50.960;13.880;2022-12-29T01:44:51;7.70;99.90
26745;DHT22;14342;50.960;13.880;2022-12-29T01:45:52;7.80;99.90
26745;DHT22;14342;50.960;13.880;2022-12-29T01:46:55;7.80;99.90
26745;DHT22;14342;50.960;13.880;2022-12-29T01:47:56;7.80;99.90
26745;DHT22;14342;50.960;13.880;2022-12-29T01:48:59;7.80;99.90
26745;DHT22;14342;50.960;13.880;2022-12-29T01:50:04;7.80;99.90
26745;DHT22;14342;50.960;13.880;2022-12-29T01:51:06;7.70;99.90
26745;DHT22;14342;50.960;13.880;2022-12-29T01:52:07;7.70;99.90
26745;DHT22;14342;50.960;13.880;2022-12-29T01:53:11;7.70;99.90
26745;DHT22;14342;50.960;13.880;2022-12-29T01:54:15;7.70;99.90
26745;DHT22;14342;50.960;13.880;2022-12-29T01:55:18;7.80;99.90
26745;DHT22;14342;50.960;13.880;2022-12-29T01:56:19;7.70;99.90
26745;DHT22;14342;50.960;13.880;2022-12-29T01:57:22;7.80;99.90
26745;DHT22;14342;50.960;13.880;2022-12-29T01:58:27;7.80;99.90
26745;DHT22;14342;50.960;13.880;2022-12-29T01:59:32;7.80;99.90
26745;DHT22;14342;50.960;13.880;2022-12-29T02:00:33;7.90;99.90
26745;DHT22;14342;50.960;13.880;2022-12-29T02:01:34;7.90;99.90
26745;DHT22;14342;50.960;13.880;2022-12-29T02:02:35;7.80;99.90
26745;DHT22;14342;50.960;13.880;2022-12-29T02:03:37;7.90;99.90
26745;DHT22;14342;50.960;13.880;2022-12-29T02:04:38;8.00;99.90
26745;DHT22;14342;50.960;13.880;2022-12-29T02:05:42;8.10;99.90
26745;DHT22;14342;50.960;13.880;2022-12-29T02:06:45;8.10;99.90
26745;DHT22;14342;50.960;13.880;2022-12-29T02:07:49;8.20;99.90
26745;DHT22;14342;50.960;13.880;2022-12-29T02:08:52;8.20;99.90
26745;DHT22;14342;50.960;13.880;2022-12-29T02:09:54;8.20;99.90
26745;DHT22;14342;50.960;13.880;2022-12-29T02:10:55;8.30;99.90
26745;DHT22;14342;50.960;13.880;2022-12-29T02:11:57;8.20;99.90
26745;DHT22;14342;50.960;13.880;2022-12-29T02:12:58;8.30;99.90
26745;DHT22;14342;50.960;13.880;2022-12-29T02:14:00;8.30;99.90
26745;DHT22;14342;50.960;13.880;2022-12-29T02:15:01;8.30;99.90
26745;DHT22;14342;50.960;13.880;2022-12-29T02:16:06;8.30;99.90
26745;DHT22;14342;50.960;13.880;2022-12-29T02:17:11;8.30;99.90
26745;DHT22;14342;50.960;13.880;2022-12-29T02:18:19;8.30;99.90
26745;DHT22;14342;50.960;13.880;2022-12-29T02:22:05;8.60;99.90
26745;DHT22;14342;50.960;13.880;2022-12-29T02:23:17;8.40;99.90
26745;DHT22;14342;50.960;13.880;2022-12-29T02:24:42;8.40;99.90
26745;DHT22;14342;50.960;13.880;2022-12-29T02:25:58;8.40;99.90
26745;DHT22;14342;50.960;13.880;2022-12-29T02:27:12;8.50;99.90
26745;DHT22;14342;50.960;13.880;2022-12-29T02:28:30;8.60;99.90
26745;DHT22;14342;50.960;13.880;2022-12-29T02:30:56;8.60;99.90
26745;DHT22;14342;50.960;13.880;2022-12-29T02:31:59;8.70;99.90
26745;DHT22;14342;50.960;13.880;2022-12-29T02:33:02;8.70;99.90
26745;DHT22;14342;50.960;13.880;2022-12-29T02:34:06;8.70;99.90
26745;DHT22;14342;50.960;13.880;2022-12-29T02:35:14;8.70;99.90
26745;DHT22;14342;50.960;13.880;2022-12-29T02:36:19;8.70;99.90
26745;DHT22;14342;50.960;13.880;2022-12-29T02:37:24;8.60;99.90
26745;DHT22;14342;50.960;13.880;2022-12-29T02:38:30;8.60;99.90
26745;DHT22;14342;50.960;13.880;2022-12-29T02:39:34;8.60;99.90
26745;DHT22;14342;50.960;13.880;2022-12-29T02:40:39;8.40;99.90
26745;DHT22;14342;50.960;13.880;2022-12-29T02:41:42;8.50;99.90
26745;DHT22;14342;50.960;13.880;2022-12-29T02:42:47;8.50;99.90
26745;DHT22;14342;50.960;13.880;2022-12-29T02:43:53;8.50;99.90
26745;DHT22;14342;50.960;13.880;2022-12-29T02:44:55;8.50;99.90
26745;DHT22;14342;50.960;13.880;2022-12-29T02:45:59;8.50;99.90
26745;DHT22;14342;50.960;13.880;2022-12-29T02:47:04;8.50;99.90
26745;DHT22;14342;50.960;13.880;2022-12-29T02:48:10;8.40;99.90
26745;DHT22;14342;50.960;13.880;2022-12-29T02:49:13;8.40;99.90
26745;DHT22;14342;50.960;13.880;2022-12-29T02:50:18;8.50;99.90
26745;DHT22;14342;50.960;13.880;2022-12-29T02:51:21;8.50;99.90
26745;DHT22;14342;50.960;13.880;2022-12-29T02:52:25;8.60;99.90
26745;DHT22;14342;50.960;13.880;2022-12-29T02:53:28;8.70;99.90
26745;DHT22;14342;50.960;13.880;2022-12-29T02:54:47;8.70;99.90
26745;DHT22;14342;50.960;13.880;2022-12-29T02:55:49;8.70;99.90
26745;DHT22;14342;50.960;13.880;2022-12-29T02:56:50;8.80;99.90
26745;DHT22;14342;50.960;13.880;2022-12-29T02:58:04;8.70;99.90
26745;DHT22;14342;50.960;13.880;2022-12-29T02:59:07;8.70;99.90
26745;DHT22;14342;50.960;13.880;2022-12-29T03:00:09;8.80;99.90
26745;DHT22;14342;50.960;13.880;2022-12-29T03:01:17;8.80;99.90
26745;DHT22;14342;50.960;13.880;2022-12-29T03:02:35;8.80;99.90
26745;DHT22;14342;50.960;13.880;2022-12-29T03:03:43;8.70;99.90
26745;DHT22;14342;50.960;13.880;2022-12-29T03:04:50;8.70;99.90
26745;DHT22;14342;50.960;13.880;2022-12-29T03:05:58;8.80;99.90
26745;DHT22;14342;50.960;13.880;2022-12-29T03:07:04;8.90;99.90
26745;DHT22;14342;50.960;13.880;2022-12-29T03:08:13;8.90;99.90
26745;DHT22;14342;50.960;13.880;2022-12-29T03:09:20;8.90;99.90
26745;DHT22;14342;50.960;13.880;2022-12-29T03:10:25;8.80;99.90
26745;DHT22;14342;50.960;13.880;2022-12-29T03:11:27;8.80;99.90
26745;DHT22;14342;50.960;13.880;2022-12-29T03:12:53;8.80;99.90
26745;DHT22;14342;50.960;13.880;2022-12-29T03:14:16;8.80;99.90
26745;DHT22;14342;50.960;13.880;2022-12-29T03:15:39;8.70;99.90
26745;DHT22;14342;50.960;13.880;2022-12-29T03:17:03;8.70;99.90
26745;DHT22;14342;50.960;13.880;2022-12-29T03:18:10;8.70;99.90
26745;DHT22;14342;50.960;13.880;2022-12-29T03:19:14;8.60;99.90
26745;DHT22;14342;50.960;13.880;2022-12-29T03:20:18;8.50;99.90
26745;DHT22;14342;50.960;13.880;2022-12-29T03:21:22;8.50;99.90
26745;DHT22;14342;50.960;13.880;2022-12-29T03:22:47;8.50;99.90
26745;DHT22;14342;50.960;13.880;2022-12-29T03:23:48;8.40;99.90
26745;DHT22;14342;50.960;13.880;2022-12-29T03:24:50;8.30;99.90
26745;DHT22;14342;50.960;13.880;2022-12-29T03:25:53;8.40;99.90
26745;DHT22;14342;50.960;13.880;2022-12-29T03:26:57;8.40;99.90
26745;DHT22;14342;50.960;13.880;2022-12-29T03:28:00;8.40;99.90
26745;DHT22;14342;50.960;13.880;2022-12-29T03:29:02;8.40;99.90
26745;DHT22;14342;50.960;13.880;2022-12-29T03:30:04;8.40;99.90
26745;DHT22;14342;50.960;13.880;2022-12-29T03:31:06;8.40;99.90
26745;DHT22;14342;50.960;13.880;2022-12-29T03:32:09;8.40;99.90
26745;DHT22;14342;50.960;13.880;2022-12-29T03:33:14;8.40;99.90
26745;DHT22;14342;50.960;13.880;2022-12-29T03:34:15;8.40;99.90
26745;DHT22;14342;50.960;13.880;2022-12-29T03:35:19;8.50;99.90
26745;DHT22;14342;50.960;13.880;2022-12-29T03:36:23;8.40;99.90
26745;DHT22;14342;50.960;13.880;2022-12-29T03:37:28;8.40;99.90
26745;DHT22;14342;50.960;13.880;2022-12-29T03:38:31;8.50;99.90
26745;DHT22;14342;50.960;13.880;2022-12-29T03:39:35;8.30;99.90
26745;DHT22;14342;50.960;13.880;2022-12-29T03:40:36;8.40;99.90
26745;DHT22;14342;50.960;13.880;2022-12-29T03:41:39;8.40;99.90
26745;DHT22;14342;50.960;13.880;2022-12-29T03:42:40;8.40;99.90
26745;DHT22;14342;50.960;13.880;2022-12-29T03:43:42;8.50;99.90
26745;DHT22;14342;50.960;13.880;2022-12-29T03:44:44;8.50;99.90
26745;DHT22;14342;50.960;13.880;2022-12-29T03:45:45;8.60;99.90
26745;DHT22;14342;50.960;13.880;2022-12-29T03:46:47;8.60;99.90
26745;DHT22;14342;50.960;13.880;2022-12-29T03:47:49;8.60;99.90
26745;DHT22;14342;50.960;13.880;2022-12-29T03:48:51;8.60;99.90
26745;DHT22;14342;50.960;13.880;2022-12-29T03:49:51;8.50;99.90
26745;DHT22;14342;50.960;13.880;2022-12-29T03:50:53;8.40;99.90
26745;DHT22;14342;50.960;13.880;2022-12-29T03:51:54;8.40;99.90
26745;DHT22;14342;50.960;13.880;2022-12-29T03:52:55;8.30;99.90
26745;DHT22;14342;50.960;13.880;2022-12-29T03:53:57;8.30;99.90
26745;DHT22;14342;50.960;13.880;2022-12-29T03:54:57;8.30;99.90
26745;DHT22;14342;50.960;13.880;2022-12-29T03:55:59;8.20;99.90
26745;DHT22;14342;50.960;13.880;2022-12-29T03:56:59;8.20;99.90
26745;DHT22;14342;50.960;13.880;2022-12-29T03:58:01;8.20;99.90
26745;DHT22;14342;50.960;13.880;2022-12-29T03:59:02;8.30;99.90
26745;DHT22;14342;50.960;13.880;2022-12-29T04:00:04;8.40;99.90
26745;DHT22;14342;50.960;13.880;2022-12-29T04:01:05;8.40;99.90
26745;DHT22;14342;50.960;13.880;2022-12-29T04:02:06;8.50;99.90
26745;DHT22;14342;50.960;13.880;2022-12-29T04:03:08;8.50;99.90
26745;DHT22;14342;50.960;13.880;2022-12-29T04:04:10;8.50;99.90
26745;DHT22;14342;50.960;13.880;2022-12-29T04:05:10;8.60;99.90
26745;DHT22;14342;50.960;13.880;2022-12-29T04:06:12;8.50;99.90
26745;DHT22;14342;50.960;13.880;2022-12-29T04:07:12;8.50;99.90
26745;DHT22;14342;50.960;13.880;2022-12-29T04:08:14;8.60;99.90
26745;DHT22;14342;50.960;13.880;2022-12-29T04:09:14;8.60;99.90
26745;DHT22;14342;50.960;13.880;2022-12-29T04:10:16;8.60;99.90
26745;DHT22;14342;50.960;13.880;2022-12-29T04:11:18;8.60;99.90
26745;DHT22;14342;50.960;13.880;2022-12-29T04:12:18;8.60;99.90
26745;DHT22;14342;50.960;13.880;2022-12-29T04:13:20;8.50;99.90
26745;DHT22;14342;50.960;13.880;2022-12-29T04:14:20;8.50;99.90
26745;DHT22;14342;50.960;13.880;2022-12-29T04:15:22;8.50;99.90
26745;DHT22;14342;50.960;13.880;2022-12-29T04:16:24;8.60;99.90
26745;DHT22;14342;50.960;13.880;2022-12-29T04:17:25;8.60;99.90
26745;DHT22;14342;50.960;13.880;2022-12-29T04:18:27;8.60;99.90
26745;DHT22;14342;50.960;13.880;2022-12-29T04:19:29;8.60;99.90
26745;DHT22;14342;50.960;13.880;2022-12-29T04:20:29;8.60;99.90
26745;DHT22;14342;50.960;13.880;2022-12-29T04:21:49;8.50;99.90
26745;DHT22;14342;50.960;13.880;2022-12-29T04:22:56;8.60;99.90
26745;DHT22;14342;50.960;13.880;2022-12-29T04:23:57;8.60;99.90
26745;DHT22;14342;50.960;13.880;2022-12-29T04:24:58;8.60;99.90
26745;DHT22;14342;50.960;13.880;2022-12-29T04:25:59;8.60;99.90
26745;DHT22;14342;50.960;13.880;2022-12-29T04:27:01;8.70;99.90
26745;DHT22;14342;50.960;13.880;2022-12-29T04:28:01;8.70;99.90
26745;DHT22;14342;50.960;13.880;2022-12-29T04:29:03;8.90;99.90
26745;DHT22;14342;50.960;13.880;2022-12-29T04:30:04;8.70;99.90
26745;DHT22;14342;50.960;13.880;2022-12-29T04:31:06;8.80;99.90
26745;DHT22;14342;50.960;13.880;2022-12-29T04:32:06;8.90;99.90
26745;DHT22;14342;50.960;13.880;2022-12-29T04:33:08;9.00;99.90
26745;DHT22;14342;50.960;13.880;2022-12-29T04:34:10;9.00;99.90
26745;DHT22;14342;50.960;13.880;2022-12-29T04:35:11;9.10;99.90
26745;DHT22;14342;50.960;13.880;2022-12-29T04:36:12;9.20;99.90
26745;DHT22;14342;50.960;13.880;2022-12-29T04:37:13;9.20;99.90
26745;DHT22;14342;50.960;13.880;2022-12-29T04:38:14;9.20;99.90
26745;DHT22;14342;50.960;13.880;2022-12-29T04:39:16;9.20;99.90
26745;DHT22;14342;50.960;13.880;2022-12-29T04:40:16;9.30;99.90
26745;DHT22;14342;50.960;13.880;2022-12-29T04:41:18;9.40;99.90
26745;DHT22;14342;50.960;13.880;2022-12-29T04:42:18;9.50;99.90
26745;DHT22;14342;50.960;13.880;2022-12-29T04:43:20;9.50;99.90
26745;DHT22;14342;50.960;13.880;2022-12-29T04:44:22;9.50;99.90
26745;DHT22;14342;50.960;13.880;2022-12-29T04:45:23;9.60;99.90
26745;DHT22;14342;50.960;13.880;2022-12-29T04:46:24;9.60;99.90
26745;DHT22;14342;50.960;13.880;2022-12-29T04:47:26;9.60;99.90
26745;DHT22;14342;50.960;13.880;2022-12-29T04:48:26;9.60;99.90
26745;DHT22;14342;50.960;13.880;2022-12-29T04:49:29;9.60;99.90
26745;DHT22;14342;50.960;13.880;2022-12-29T04:50:30;9.60;99.90
26745;DHT22;14342;50.960;13.880;2022-12-29T04:51:31;9.70;99.90
26745;DHT22;14342;50.960;13.880;2022-12-29T04:52:32;9.70;99.90
26745;DHT22;14342;50.960;13.880;2022-12-29T04:53:33;9.70;99.90
26745;DHT22;14342;50.960;13.880;2022-12-29T04:54:34;9.70;99.90
26745;DHT22;14342;50.960;13.880;2022-12-29T04:55:35;9.80;99.90
26745;DHT22;14342;50.960;13.880;2022-12-29T04:56:36;9.50;99.90
26745;DHT22;14342;50.960;13.880;2022-12-29T04:57:38;9.70;99.90
26745;DHT22;14342;50.960;13.880;2022-12-29T04:58:39;9.70;99.90
26745;DHT22;14342;50.960;13.880;2022-12-29T04:59:40;10.00;99.90
26745;DHT22;14342;50.960;13.880;2022-12-29T05:00:41;9.80;99.90
26745;DHT22;14342;50.960;13.880;2022-12-29T05:01:42;10.10;99.90
26745;DHT22;14342;50.960;13.880;2022-12-29T05:02:43;10.00;99.90
26745;DHT22;14342;50.960;13.880;2022-12-29T05:03:45;10.10;99.90
26745;DHT22;14342;50.960;13.880;2022-12-29T05:04:47;10.20;99.90
26745;DHT22;14342;50.960;13.880;2022-12-29T05:05:48;10.20;99.90
26745;DHT22;14342;50.960;13.880;2022-12-29T05:06:49;10.20;99.90
26745;DHT22;14342;50.960;13.880;2022-12-29T05:07:50;10.20;99.90
26745;DHT22;14342;50.960;13.880;2022-12-29T05:08:51;10.20;99.90
26745;DHT22;14342;50.960;13.880;2022-12-29T05:09:52;10.20;99.90
26745;DHT22;14342;50.960;13.880;2022-12-29T05:10:53;10.10;99.90
26745;DHT22;14342;50.960;13.880;2022-12-29T05:11:54;10.20;99.90
26745;DHT22;14342;50.960;13.880;2022-12-29T05:12:55;10.30;99.90
26745;DHT22;14342;50.960;13.880;2022-12-29T05:13:58;10.30;99.90
26745;DHT22;14342;50.960;13.880;2022-12-29T05:14:59;10.30;99.90
26745;DHT22;14342;50.960;13.880;2022-12-29T05:16:02;10.30;99.90
26745;DHT22;14342;50.960;13.880;2022-12-29T05:17:03;10.30;99.90
26745;DHT22;14342;50.960;13.880;2022-12-29T05:18:04;10.30;99.90
26745;DHT22;14342;50.960;13.880;2022-12-29T05:19:05;10.30;99.90
26745;DHT22;14342;50.960;13.880;2022-12-29T05:20:08;10.30;99.90
26745;DHT22;14342;50.960;13.880;2022-12-29T05:21:09;10.30;99.90
26745;DHT22;14342;50.960;13.880;2022-12-29T05:22:10;10.30;99.90
26745;DHT22;14342;50.960;13.880;2022-12-29T05:23:11;10.30;99.90
26745;DHT22;14342;50.960;13.880;2022-12-29T05:24:13;10.20;99.90
26745;DHT22;14342;50.960;13.880;2022-12-29T05:25:13;10.20;99.90
26745;DHT22;14342;50.960;13.880;2022-12-29T05:26:15;10.10;99.90
26745;DHT22;14342;50.960;13.880;2022-12-29T05:27:16;10.10;99.90
26745;DHT22;14342;50.960;13.880;2022-12-29T05:28:17;10.20;99.90
26745;DHT22;14342;50.960;13.880;2022-12-29T05:29:18;10.20;99.90
26745;DHT22;14342;50.960;13.880;2022-12-29T05:30:19;10.20;99.90
26745;DHT22;14342;50.960;13.880;2022-12-29T05:31:20;10.30;99.90
26745;DHT22;14342;50.960;13.880;2022-12-29T05:32:21;10.40;99.90
26745;DHT22;14342;50.960;13.880;2022-12-29T05:33:22;10.50;99.90
26745;DHT22;14342;50.960;13.880;2022-12-29T05:34:23;10.50;99.90
26745;DHT22;14342;50.960;13.880;2022-12-29T05:35:25;10.50;99.90
26745;DHT22;14342;50.960;13.880;2022-12-29T05:36:27;10.60;99.90
26745;DHT22;14342;50.960;13.880;2022-12-29T05:37:27;10.70;99.90
26745;DHT22;14342;50.960;13.880;2022-12-29T05:38:29;10.50;99.90
26745;DHT22;14342;50.960;13.880;2022-12-29T05:39:30;10.70;99.90
26745;DHT22;14342;50.960;13.880;2022-12-29T05:40:31;10.80;99.90
26745;DHT22;14342;50.960;13.880;2022-12-29T05:41:32;10.80;99.90
26745;DHT22;14342;50.960;13.880;2022-12-29T05:42:33;10.80;99.90
26745;DHT22;14342;50.960;13.880;2022-12-29T05:43:34;10.90;99.90
26745;DHT22;14342;50.960;13.880;2022-12-29T05:44:35;10.90;99.90
26745;DHT22;14342;50.960;13.880;2022-12-29T05:45:36;10.90;99.90
26745;DHT22;14342;50.960;13.880;2022-12-29T05:46:38;10.90;99.90
26745;DHT22;14342;50.960;13.880;2022-12-29T05:47:38;10.80;99.90
26745;DHT22;14342;50.960;13.880;2022-12-29T05:48:40;10.90;99.90
26745;DHT22;14342;50.960;13.880;2022-12-29T05:49:40;11.00;99.90
26745;DHT22;14342;50.960;13.880;2022-12-29T05:50:43;11.10;99.90
26745;DHT22;14342;50.960;13.880;2022-12-29T05:51:47;11.10;99.90
26745;DHT22;14342;50.960;13.880;2022-12-29T05:52:48;11.20;99.90
26745;DHT22;14342;50.960;13.880;2022-12-29T05:53:49;11.30;99.90
26745;DHT22;14342;50.960;13.880;2022-12-29T05:54:51;11.30;99.90
26745;DHT22;14342;50.960;13.880;2022-12-29T05:55:51;11.40;99.90
26745;DHT22;14342;50.960;13.880;2022-12-29T05:56:53;11.50;99.90
26745;DHT22;14342;50.960;13.880;2022-12-29T05:57:53;11.50;99.90
26745;DHT22;14342;50.960;13.880;2022-12-29T05:58:55;11.40;99.90
26745;DHT22;14342;50.960;13.880;2022-12-29T05:59:56;11.30;99.90
26745;DHT22;14342;50.960;13.880;2022-12-29T06:00:57;11.30;99.90
26745;DHT22;14342;50.960;13.880;2022-12-29T06:01:58;11.20;99.90
26745;DHT22;14342;50.960;13.880;2022-12-29T06:03:00;11.40;99.90
26745;DHT22;14342;50.960;13.880;2022-12-29T06:04:00;11.40;99.90
26745;DHT22;14342;50.960;13.880;2022-12-29T06:05:02;11.30;99.90
26745;DHT22;14342;50.960;13.880;2022-12-29T06:06:04;11.30;99.90
26745;DHT22;14342;50.960;13.880;2022-12-29T06:07:06;11.30;99.90
26745;DHT22;14342;50.960;13.880;2022-12-29T06:08:06;11.30;99.90
26745;DHT22;14342;50.960;13.880;2022-12-29T06:09:09;11.40;99.90
26745;DHT22;14342;50.960;13.880;2022-12-29T06:10:09;11.50;99.90
26745;DHT22;14342;50.960;13.880;2022-12-29T06:11:11;11.50;99.90
26745;DHT22;14342;50.960;13.880;2022-12-29T06:12:11;11.60;99.90
26745;DHT22;14342;50.960;13.880;2022-12-29T06:13:13;11.70;99.90
26745;DHT22;14342;50.960;13.880;2022-12-29T06:14:14;11.70;99.90
26745;DHT22;14342;50.960;13.880;2022-12-29T06:15:15;11.60;99.90
26745;DHT22;14342;50.960;13.880;2022-12-29T06:16:16;11.70;99.90
26745;DHT22;14342;50.960;13.880;2022-12-29T06:17:17;11.70;99.90
26745;DHT22;14342;50.960;13.880;2022-12-29T06:18:18;11.70;99.90
26745;DHT22;14342;50.960;13.880;2022-12-29T06:19:19;11.70;99.90
26745;DHT22;14342;50.960;13.880;2022-12-29T06:20:20;11.70;99.90
26745;DHT22;14342;50.960;13.880;2022-12-29T06:21:23;11.60;99.90
26745;DHT22;14342;50.960;13.880;2022-12-29T06:22:23;11.60;99.90
26745;DHT22;14342;50.960;13.880;2022-12-29T06:23:25;11.60;99.90
26745;DHT22;14342;50.960;13.880;2022-12-29T06:24:25;11.60;99.90
26745;DHT22;14342;50.960;13.880;2022-12-29T06:25:27;11.40;99.90
26745;DHT22;14342;50.960;13.880;2022-12-29T06:26:28;11.30;99.90
26745;DHT22;14342;50.960;13.880;2022-12-29T06:27:30;11.30;99.90
26745;DHT22;14342;50.960;13.880;2022-12-29T06:28:30;11.20;99.90
26745;DHT22;14342;50.960;13.880;2022-12-29T06:29:32;11.30;99.90
26745;DHT22;14342;50.960;13.880;2022-12-29T06:30:33;11.30;99.90
26745;DHT22;14342;50.960;13.880;2022-12-29T06:31:34;11.20;99.90
26745;DHT22;14342;50.960;13.880;2022-12-29T06:32:35;11.10;99.90
26745;DHT22;14342;50.960;13.880;2022-12-29T06:33:37;11.10;99.90
26745;DHT22;14342;50.960;13.880;2022-12-29T06:34:37;11.10;99.90
26745;DHT22;14342;50.960;13.880;2022-12-29T06:35:39;11.00;99.90
26745;DHT22;14342;50.960;13.880;2022-12-29T06:36:41;10.90;99.90
26745;DHT22;14342;50.960;13.880;2022-12-29T06:37:42;10.80;99.90
26745;DHT22;14342;50.960;13.880;2022-12-29T06:38:43;10.70;99.90
26745;DHT22;14342;50.960;13.880;2022-12-29T06:39:45;10.70;99.90
26745;DHT22;14342;50.960;13.880;2022-12-29T06:40:45;10.70;99.90
26745;DHT22;14342;50.960;13.880;2022-12-29T06:41:47;10.60;99.90
26745;DHT22;14342;50.960;13.880;2022-12-29T06:42:47;10.50;99.90
26745;DHT22;14342;50.960;13.880;2022-12-29T06:43:49;10.40;99.90
26745;DHT22;14342;50.960;13.880;2022-12-29T06:44:49;10.30;99.90